Basinger, Florida
Current Conditions -  °F | °C
As of 8:35 AM on Sunday 28 Dec 2014 (Local Time) from KOBE Reporting Station
Clear Clear  
Wind Chill: 64°   Ceiling: Unl
Heat Index: 64°   Visibility: 7mi
Dew Point: 64°   Wind: 0mph
Humidity: 100%   Direction: NA
Pressure: 30.18"   Gusts: NA
Location:  27.4513°N, 80.9004°W
Report Text: KOBE 281335Z AUTO 00000KT 7SM CLR 18/18 A3018 RMK AO2
Loading
Personal Weather Stations






























Interactive Weather Map New forecast layout! Learn more

10-Day Weather Forecast

Advertisements
Track Severe Weather on mobile